Terminal Aerodrome Forecast
Issued by NWS Shreveport, LA

Home | Current Version | Previous Version | Text Only | Print | Product List | Glossary On
Versions: 1 2 3 4 5 6 7 8 9 10 11 12 13 14 15 16 17 18 19
927
FTUS44 KSHV 270605 AAA
TAFGGG
TAF AMD
KGGG 270605Z 2706/2806 16008KT P6SM BKN025 BKN030
      TEMPO 2707/2711 VRB10G18KT 3SM TSRA BR BKN015 OVC050CB
     FM271500 16012G20KT P6SM VCTS BKN025CB
      TEMPO 2718/2722 16018G30KT 2SM TSRA BR OVC010CB
     FM272300 17012G18KT P6SM BKN020
      TEMPO 2723/2803 SCT030=

USA.gov is the U.S. government's official web portal to all federal, state and local government web resources and services.